Time;durP1;ratioP1;P1;durP2;ratioP2;P2;SDS_P1;SDS_P2;PMS_P1;PMS_P2;Temp;Humidity;BMP_temperature;BMP_pressure;BME280_temperature;BME280_humidity;BME280_pressure;Samples;Min_cycle;Max_cycle;Signal;HPM_P1;HPM_P2
2023/05/20 00:01:42;;;;;;;46.40;28.40;;;;;;;11.91;79.39;100016.49;104403;1274;97940;-81
2023/05/20 00:04:10;;;;;;;45.20;27.70;;;;;;;11.90;79.20;100011.73;104517;1267;96821;-82
2023/05/20 00:06:38;;;;;;;44.80;25.80;;;;;;;11.91;79.34;100009.17;104707;1274;109992;-80
2023/05/20 00:09:06;;;;;;;45.40;28.40;;;;;;;11.92;79.37;100005.05;104634;1274;97656;-81
2023/05/20 00:11:35;;;;;;;56.20;37.00;;;;;;;11.91;79.47;99998.52;104446;1266;107685;-84
2023/05/20 00:14:03;;;;;;;55.70;40.10;;;;;;;11.91;79.45;100000.64;104521;1276;96610;-81
2023/05/20 00:16:30;;;;;;;47.90;29.70;;;;;;;11.92;79.39;100001.84;104604;1266;97855;-85
2023/05/20 00:18:59;;;;;;;45.50;27.00;;;;;;;11.92;79.46;100001.85;104541;1266;109973;-81
2023/05/20 00:21:28;;;;;;;49.10;28.10;;;;;;;11.93;79.54;100000.73;104593;1271;96626;-81
2023/05/20 00:23:57;;;;;;;48.10;27.80;;;;;;;11.93;79.52;100003.39;104506;1261;107347;-83
2023/05/20 00:26:28;;;;;;;44.70;27.20;;;;;;;11.94;79.52;100004.98;104561;1271;96524;-83
2023/05/20 00:28:55;;;;;;;45.20;26.80;;;;;;;11.94;79.64;100004.09;104675;1266;96664;-81
2023/05/20 00:31:23;;;;;;;48.50;28.60;;;;;;;11.94;79.55;100006.92;104562;1275;111262;-82
2023/05/20 00:33:52;;;;;;;47.40;27.20;;;;;;;11.94;79.61;100004.40;104548;1269;97567;-82
2023/05/20 00:36:20;;;;;;;44.80;27.50;;;;;;;11.94;79.69;100004.05;104429;1266;107398;-81
2023/05/20 00:38:48;;;;;;;47.10;28.70;;;;;;;11.94;79.58;100001.76;104665;1274;98013;-81
2023/05/20 00:41:16;;;;;;;47.90;29.40;;;;;;;11.94;79.67;100004.59;104481;1266;96747;-80
2023/05/20 00:43:44;;;;;;;52.20;31.40;;;;;;;11.94;79.63;100002.83;104563;1267;109715;-81
2023/05/20 00:46:12;;;;;;;52.70;31.30;;;;;;;11.94;79.68;100001.22;104592;1266;96698;-81
2023/05/20 00:48:42;;;;;;;50.10;29.50;;;;;;;11.94;79.69;100000.84;104564;1274;107657;-84
2023/05/20 00:51:13;;;;;;;49.00;28.40;;;;;;;11.94;79.64;100003.16;104596;1266;97080;-82
2023/05/20 00:53:42;;;;;;;48.70;28.60;;;;;;;11.93;79.83;100000.70;104627;1268;97833;-83
2023/05/20 00:56:11;;;;;;;46.80;28.00;;;;;;;11.94;79.76;100004.27;104672;1266;110443;-82
2023/05/20 00:58:39;;;;;;;53.90;30.30;;;;;;;11.94;79.77;100002.80;104759;1261;97641;-85
2023/05/20 01:01:07;;;;;;;53.50;30.20;;;;;;;11.94;79.71;100006.52;104616;1266;107378;-80
2023/05/20 01:03:36;;;;;;;48.80;28.60;;;;;;;11.94;79.88;99998.70;104529;1261;97938;-81
2023/05/20 01:06:05;;;;;;;53.80;29.30;;;;;;;11.95;79.86;99998.70;104564;1272;96687;-81
2023/05/20 01:08:34;;;;;;;54.60;30.50;;;;;;;11.95;79.85;99997.07;104524;1266;108791;-82
2023/05/20 01:11:06;;;;;;;52.70;28.20;;;;;;;11.95;79.95;99992.78;104544;1260;96628;-82
2023/05/20 01:13:44;;;;;;;54.00;28.90;;;;;;;11.94;79.96;99995.48;104656;1276;107725;-81
2023/05/20 01:16:16;;;;;;;51.10;27.90;;;;;;;11.95;80.00;99994.04;104671;1266;96711;-81
2023/05/20 01:18:47;;;;;;;54.20;29.10;;;;;;;11.95;79.92;99990.48;104633;1272;96590;-82
2023/05/20 01:21:16;;;;;;;49.80;29.00;;;;;;;11.96;80.00;99986.38;104570;1265;110020;-83
2023/05/20 01:23:44;;;;;;;54.50;31.30;;;;;;;11.95;80.06;99986.41;104540;1267;97936;-81
2023/05/20 01:26:13;;;;;;;48.10;28.60;;;;;;;11.94;79.96;99984.30;104419;1266;107662;-80
2023/05/20 01:28:44;;;;;;;49.10;28.50;;;;;;;11.95;79.96;99986.05;104563;1267;97837;-79
2023/05/20 01:31:22;;;;;;;51.40;28.30;;;;;;;11.93;80.00;99984.17;104438;1277;96603;-80
2023/05/20 01:33:56;;;;;;;68.50;45.50;;;;;;;11.93;80.01;99983.84;104469;1266;109918;-81
2023/05/20 01:36:27;;;;;;;59.90;35.30;;;;;;;11.90;80.02;99986.13;104743;1274;96739;-80
2023/05/20 01:38:57;;;;;;;59.50;30.10;;;;;;;11.90;80.10;99979.58;104589;1266;108296;-80
2023/05/20 01:41:26;;;;;;;57.80;30.60;;;;;;;11.89;80.06;99980.35;104538;1275;96619;-81
2023/05/20 01:43:54;;;;;;;53.00;30.70;;;;;;;11.88;80.08;99978.09;104722;1262;96744;-83
2023/05/20 01:46:22;;;;;;;54.00;30.90;;;;;;;11.88;80.18;99982.17;104623;1266;109995;-81
2023/05/20 01:49:01;;;;;;;53.90;31.20;;;;;;;11.88;80.14;99981.48;104518;1267;96635;-82
2023/05/20 01:51:32;;;;;;;56.40;29.50;;;;;;;11.87;80.21;99981.02;104718;1270;107825;-80
2023/05/20 01:54:00;;;;;;;53.00;31.00;;;;;;;11.87;80.25;99981.75;104505;1267;96603;-83
2023/05/20 01:56:29;;;;;;;54.10;31.00;;;;;;;11.87;80.15;99976.40;104869;1267;96565;-81
2023/05/20 01:58:57;;;;;;;66.50;44.20;;;;;;;11.86;80.19;99975.21;104503;1276;109923;-81
2023/05/20 02:01:25;;;;;;;67.40;40.40;;;;;;;11.84;80.05;99976.61;104603;1276;96601;-81
2023/05/20 02:03:53;;;;;;;57.70;34.90;;;;;;;11.81;80.24;99976.26;104678;1261;107721;-81
2023/05/20 02:06:21;;;;;;;62.00;37.20;;;;;;;11.82;80.31;99977.10;104716;1260;96946;-82
2023/05/20 02:08:49;;;;;;;53.30;31.00;;;;;;;11.84;80.31;99978.38;104479;1267;96645;-83
2023/05/20 02:11:17;;;;;;;58.60;32.30;;;;;;;11.83;80.35;99977.34;104539;1273;110005;-81
2023/05/20 02:13:45;;;;;;;61.50;33.10;;;;;;;11.82;80.31;99977.06;104611;1276;97563;-82
2023/05/20 02:16:13;;;;;;;55.20;30.30;;;;;;;11.81;80.21;99978.04;104509;1267;106734;-83
2023/05/20 02:18:41;;;;;;;55.00;28.90;;;;;;;11.82;80.43;99979.74;104633;1266;96713;-85
2023/05/20 02:21:10;;;;;;;57.90;31.20;;;;;;;11.83;80.48;99979.67;104590;1260;96614;-82
2023/05/20 02:23:38;;;;;;;52.50;27.80;;;;;;;11.85;80.47;99986.33;104685;1265;109944;-81
2023/05/20 02:26:06;;;;;;;59.10;30.80;;;;;;;11.86;80.49;99982.88;104678;1266;96630;-81
2023/05/20 02:28:33;;;;;;;58.90;33.80;;;;;;;11.86;80.46;99990.83;104473;1266;108109;-81
2023/05/20 02:31:01;;;;;;;57.60;31.50;;;;;;;11.87;80.40;99992.18;104512;1265;98030;-80
2023/05/20 02:33:29;;;;;;;60.90;32.50;;;;;;;11.87;80.49;99990.96;104505;1267;96628;-82
2023/05/20 02:35:58;;;;;;;63.80;32.30;;;;;;;11.87;80.54;99988.68;104551;1270;109949;-81
2023/05/20 02:38:26;;;;;;;78.30;50.20;;;;;;;11.86;80.56;99983.89;104537;1265;96718;-81
2023/05/20 02:40:55;;;;;;;93.80;61.80;;;;;;;11.87;80.50;99981.76;104493;1267;107673;-81
2023/05/20 02:43:23;;;;;;;70.20;45.60;;;;;;;11.87;80.62;99977.48;104669;1263;97381;-81
2023/05/20 02:45:51;;;;;;;78.00;46.60;;;;;;;11.87;80.59;99975.31;104700;1267;96708;-82
2023/05/20 02:48:19;;;;;;;66.30;35.90;;;;;;;11.87;80.61;99978.73;104743;1260;109945;-81
2023/05/20 02:50:47;;;;;;;61.90;35.60;;;;;;;11.88;80.65;99979.73;104531;1266;96603;-81
2023/05/20 02:53:16;;;;;;;60.90;33.50;;;;;;;11.89;80.76;99981.92;104477;1266;107657;-81
2023/05/20 02:55:48;;;;;;;56.10;31.90;;;;;;;11.90;80.77;99981.00;104500;1265;97535;-81
2023/05/20 02:58:16;;;;;;;55.10;32.00;;;;;;;11.92;80.72;99981.09;104536;1266;96695;-80
2023/05/20 03:00:44;;;;;;;57.70;30.90;;;;;;;11.93;80.72;99979.61;104511;1265;110051;-81
2023/05/20 03:03:15;;;;;;;56.80;30.90;;;;;;;11.94;80.77;99982.20;104574;1267;96619;-82
2023/05/20 03:05:44;;;;;;;57.20;30.40;;;;;;;11.95;80.72;99976.83;104520;1276;107518;-82
2023/05/20 03:08:13;;;;;;;52.70;30.00;;;;;;;11.95;80.73;99978.78;104691;1262;97845;-80
2023/05/20 03:10:41;;;;;;;53.90;28.80;;;;;;;11.95;80.71;99976.64;104672;1268;96681;-81
2023/05/20 03:13:10;;;;;;;54.90;30.60;;;;;;;11.95;80.76;99986.02;104482;1267;109640;-81
2023/05/20 03:15:38;;;;;;;53.60;28.70;;;;;;;11.95;80.73;99985.37;104416;1267;96603;-81
2023/05/20 03:18:07;;;;;;;54.60;30.70;;;;;;;11.95;80.67;99987.62;104465;1276;107394;-80
2023/05/20 03:20:37;;;;;;;53.10;29.90;;;;;;;11.97;80.85;99991.26;104704;1260;96633;-80
2023/05/20 03:23:05;;;;;;;57.30;31.20;;;;;;;11.99;80.79;99992.38;104572;1267;96601;-82
2023/05/20 03:25:36;;;;;;;58.20;31.30;;;;;;;12.02;80.87;99993.28;104534;1260;110014;-82
2023/05/20 03:28:05;;;;;;;53.20;30.20;;;;;;;12.03;80.79;99996.00;104572;1260;96578;-82
2023/05/20 03:30:33;;;;;;;56.40;29.50;;;;;;;12.03;80.86;99997.77;104555;1267;107666;-81
2023/05/20 03:33:01;;;;;;;56.90;31.30;;;;;;;12.04;80.72;99996.70;104531;1273;96687;-82
2023/05/20 03:35:30;;;;;;;54.70;29.90;;;;;;;12.04;80.70;99996.88;104649;1265;96646;-82
2023/05/20 03:38:00;;;;;;;53.10;29.50;;;;;;;12.04;80.82;99998.44;104407;1267;109970;-80
2023/05/20 03:40:28;;;;;;;50.00;31.90;;;;;;;12.08;80.98;99997.87;104543;1265;96682;-81
2023/05/20 03:42:56;;;;;;;53.00;30.80;;;;;;;12.10;80.89;99997.20;104680;1261;107870;-81
2023/05/20 03:45:24;;;;;;;54.60;30.80;;;;;;;12.12;80.93;100002.59;104535;1268;98073;-81
2023/05/20 03:47:52;;;;;;;52.70;29.00;;;;;;;12.14;81.02;100001.05;104520;1264;99313;-79
2023/05/20 03:50:21;;;;;;;50.00;29.70;;;;;;;12.17;81.03;100003.30;104625;1276;111340;-81
2023/05/20 03:52:48;;;;;;;49.00;29.60;;;;;;;12.20;81.01;100003.71;104518;1261;99291;-81
2023/05/20 03:55:19;;;;;;;53.40;29.60;;;;;;;12.24;81.08;100003.22;104508;1276;107404;-81
2023/05/20 03:57:47;;;;;;;48.90;29.30;;;;;;;12.27;80.92;99998.76;104483;1277;98062;-82
2023/05/20 04:00:15;;;;;;;46.00;28.30;;;;;;;12.30;81.08;100008.02;104548;1266;97968;-81
2023/05/20 04:02:44;;;;;;;44.50;27.90;;;;;;;12.33;81.22;100004.25;104632;1260;111937;-81
2023/05/20 04:05:13;;;;;;;49.00;27.90;;;;;;;12.37;81.03;99999.39;104668;1267;98057;-81
2023/05/20 04:07:41;;;;;;;44.20;28.00;;;;;;;12.41;81.14;99999.14;104675;1265;107674;-79
2023/05/20 04:10:10;;;;;;;47.20;29.10;;;;;;;12.45;81.07;100001.91;104504;1265;99322;-82
2023/05/20 04:12:38;;;;;;;44.70;29.00;;;;;;;12.48;81.19;99996.17;104587;1267;97889;-80
2023/05/20 04:15:06;;;;;;;50.10;29.30;;;;;;;12.54;81.16;99999.36;104422;1274;110965;-81
2023/05/20 04:17:37;;;;;;;42.90;28.10;;;;;;;12.55;81.01;100001.95;104676;1267;98043;-82
2023/05/20 04:20:06;;;;;;;45.80;29.30;;;;;;;12.58;81.25;99999.11;104638;1263;106226;-81
2023/05/20 04:22:35;;;;;;;39.70;26.30;;;;;;;12.63;81.20;99998.59;104636;1260;97977;-81
2023/05/20 04:25:05;;;;;;;46.30;29.40;;;;;;;12.68;81.27;99998.77;104491;1273;97963;-84
2023/05/20 04:27:33;;;;;;;43.10;25.70;;;;;;;12.74;81.32;99999.48;104478;1260;111239;-80
2023/05/20 04:30:01;;;;;;;43.90;27.20;;;;;;;12.78;81.26;99998.27;104413;1266;98078;-82
2023/05/20 04:32:30;;;;;;;42.70;28.00;;;;;;;12.85;81.23;99996.80;104704;1276;107436;-81
2023/05/20 04:35:00;;;;;;;43.40;26.50;;;;;;;12.90;81.31;99996.78;104641;1265;98278;-81
2023/05/20 04:37:30;;;;;;;40.70;26.20;;;;;;;12.93;81.28;100000.63;104652;1260;97949;-81
2023/05/20 04:39:58;;;;;;;44.10;27.20;;;;;;;12.98;81.38;100000.88;105161;1260;111817;-80
2023/05/20 04:42:26;;;;;;;41.30;27.90;;;;;;;13.01;81.13;99999.05;104582;1267;99332;-81
2023/05/20 04:44:54;;;;;;;38.40;25.80;;;;;;;13.00;81.22;99999.34;104505;1277;107577;-83
2023/05/20 04:47:22;;;;;;;39.30;25.90;;;;;;;13.01;81.30;100001.58;104744;1265;99186;-82
2023/05/20 04:49:51;;;;;;;41.80;27.00;;;;;;;13.05;81.41;99997.94;104391;1284;97999;-80
2023/05/20 04:52:19;;;;;;;39.00;25.40;;;;;;;13.09;81.37;99993.54;104460;1267;111332;-80
2023/05/20 04:54:47;;;;;;;41.60;27.40;;;;;;;13.13;81.41;99992.94;104470;1265;98084;-81
2023/05/20 04:57:16;;;;;;;35.20;24.00;;;;;;;13.18;81.52;99991.52;104467;1280;107525;-81
2023/05/20 04:59:44;;;;;;;42.90;27.80;;;;;;;13.21;81.40;99988.79;104566;1260;97950;-81
2023/05/20 05:02:13;;;;;;;36.60;24.90;;;;;;;13.23;81.39;99990.80;104662;1266;99295;-82
2023/05/20 05:04:42;;;;;;;39.80;25.80;;;;;;;13.29;81.50;99987.77;104769;1265;111137;-83
2023/05/20 05:07:10;;;;;;;40.80;25.00;;;;;;;13.34;81.39;99987.77;104534;1260;97973;-82
2023/05/20 05:09:37;;;;;;;43.10;25.50;;;;;;;13.38;81.47;99991.02;104701;1260;107743;-81
2023/05/20 05:12:06;;;;;;;43.00;27.60;;;;;;;13.43;81.45;99989.48;104650;1265;99299;-83
2023/05/20 05:14:34;;;;;;;38.20;25.50;;;;;;;13.47;81.36;99985.63;104723;1265;97855;-80
2023/05/20 05:17:02;;;;;;;38.00;25.30;;;;;;;13.51;81.33;99992.11;104555;1267;110223;-82
2023/05/20 05:19:31;;;;;;;39.10;24.60;;;;;;;13.51;81.27;99993.73;104500;1265;97993;-81
2023/05/20 05:21:58;;;;;;;39.40;24.30;;;;;;;13.53;81.41;100001.27;104659;1265;107663;-82
2023/05/20 05:24:26;;;;;;;39.80;25.00;;;;;;;13.54;81.44;100007.54;104527;1265;97950;-81
2023/05/20 05:26:55;;;;;;;38.90;24.20;;;;;;;13.57;81.47;100008.30;104780;1261;99282;-81
2023/05/20 05:29:23;;;;;;;38.00;23.90;;;;;;;13.59;81.46;100011.70;104507;1274;111274;-80
2023/05/20 05:31:50;;;;;;;36.60;23.90;;;;;;;13.63;81.46;100014.84;104689;1260;98575;-82
2023/05/20 05:34:19;;;;;;;38.70;25.20;;;;;;;13.66;81.53;100020.66;104662;1274;107483;-85
2023/05/20 05:36:47;;;;;;;38.20;23.20;;;;;;;13.68;81.57;100018.52;104616;1265;97974;-83
2023/05/20 05:39:15;;;;;;;40.30;25.80;;;;;;;13.71;81.48;100017.29;104746;1276;97961;-81
2023/05/20 05:41:43;;;;;;;36.10;24.10;;;;;;;13.74;81.49;100014.98;104583;1277;111069;-81
2023/05/20 05:44:11;;;;;;;35.70;23.90;;;;;;;13.77;81.52;100012.26;104565;1266;97956;-83
2023/05/20 05:46:39;;;;;;;38.40;22.40;;;;;;;13.82;81.55;100015.26;104737;1272;107601;-81
2023/05/20 05:49:07;;;;;;;38.80;24.50;;;;;;;13.89;81.58;100013.87;104493;1265;98069;-81
2023/05/20 05:51:35;;;;;;;40.60;24.70;;;;;;;13.92;81.60;100019.34;104631;1264;98146;-83
2023/05/20 05:54:08;;;;;;;39.00;25.70;;;;;;;13.96;81.59;100020.48;104611;1266;111309;-81
2023/05/20 05:56:36;;;;;;;43.40;25.90;;;;;;;14.03;81.60;100026.30;104612;1268;98107;-81
2023/05/20 05:59:04;;;;;;;40.50;25.70;;;;;;;14.07;81.51;100029.19;104478;1265;107036;-82
2023/05/20 06:01:33;;;;;;;39.80;25.90;;;;;;;14.12;81.63;100026.15;104529;1263;98047;-81
2023/05/20 06:04:01;;;;;;;41.10;25.70;;;;;;;14.19;81.47;100027.66;104705;1265;97923;-80
2023/05/20 06:06:30;;;;;;;41.30;26.40;;;;;;;14.24;81.60;100028.89;104662;1266;111336;-82
2023/05/20 06:08:58;;;;;;;42.10;26.00;;;;;;;14.28;81.37;100031.77;104985;1265;97897;-82
2023/05/20 06:11:26;;;;;;;41.90;24.80;;;;;;;14.31;81.45;100031.77;104913;1265;106366;-82
2023/05/20 06:13:54;;;;;;;42.80;24.80;;;;;;;14.34;81.54;100029.75;104582;1265;97976;-81
2023/05/20 06:16:22;;;;;;;40.80;25.00;;;;;;;14.37;81.45;100027.08;104541;1261;98038;-81
2023/05/20 06:18:54;;;;;;;38.70;26.20;;;;;;;14.41;81.55;100024.98;104508;1263;112363;-79
2023/05/20 06:21:22;;;;;;;40.70;25.00;;;;;;;14.48;81.50;100027.44;104812;1261;98065;-80
2023/05/20 06:23:50;;;;;;;42.30;25.00;;;;;;;14.54;81.55;100017.20;104626;1265;107553;-79
2023/05/20 06:26:19;;;;;;;47.60;27.30;;;;;;;14.63;81.62;100021.03;104683;1265;99169;-79
2023/05/20 06:28:46;;;;;;;39.90;24.60;;;;;;;14.70;81.43;100020.91;104618;1265;97979;-81
2023/05/20 06:31:14;;;;;;;40.00;25.10;;;;;;;14.75;81.54;100018.16;104534;1265;110991;-83
2023/05/20 06:33:43;;;;;;;44.80;26.00;;;;;;;14.86;81.68;100018.77;104548;1266;98081;-81
2023/05/20 06:36:11;;;;;;;40.10;24.30;;;;;;;14.97;81.58;100015.66;104494;1267;107489;-83
2023/05/20 06:38:39;;;;;;;41.50;25.70;;;;;;;15.07;81.56;100016.84;104540;1265;97970;-82
2023/05/20 06:41:07;;;;;;;38.50;24.40;;;;;;;15.14;81.47;100013.27;104638;1265;97950;-81
2023/05/20 06:43:35;;;;;;;37.20;22.90;;;;;;;15.26;81.65;100015.40;104513;1266;111346;-85
2023/05/20 06:46:03;;;;;;;36.40;23.60;;;;;;;15.39;81.64;100012.47;104612;1265;97948;-79
2023/05/20 06:48:31;;;;;;;39.10;25.30;;;;;;;15.49;81.46;100011.88;104575;1265;106757;-81
2023/05/20 06:50:59;;;;;;;39.60;25.60;;;;;;;15.56;81.42;100016.54;104507;1267;97976;-80
2023/05/20 06:53:27;;;;;;;41.90;24.90;;;;;;;15.60;81.39;100009.02;104593;1260;97883;-80
2023/05/20 06:55:55;;;;;;;39.10;25.60;;;;;;;15.67;81.45;100008.02;104633;1266;112518;-83
2023/05/20 06:58:23;;;;;;;38.40;24.20;;;;;;;15.75;81.35;100005.52;105772;1265;99159;-80
2023/05/20 07:00:52;;;;;;;36.30;23.60;;;;;;;15.85;81.33;100004.97;105751;1260;106770;-81
2023/05/20 07:03:19;;;;;;;36.90;24.00;;;;;;;15.95;81.29;100009.17;104568;1265;99265;-83
2023/05/20 07:05:47;;;;;;;35.00;22.50;;;;;;;16.01;81.24;100007.07;104779;1265;99195;-82
2023/05/20 07:08:15;;;;;;;35.10;22.00;;;;;;;16.07;81.36;100010.36;104872;1265;113196;-81
2023/05/20 07:10:45;;;;;;;35.00;24.10;;;;;;;16.13;81.23;100013.46;104502;1265;98645;-82
2023/05/20 07:13:13;;;;;;;37.10;23.00;;;;;;;16.20;81.24;100012.70;104628;1260;107644;-80
2023/05/20 07:15:41;;;;;;;39.60;22.40;;;;;;;16.30;81.40;100011.39;104668;1266;97903;-80
2023/05/20 07:18:09;;;;;;;36.30;22.50;;;;;;;16.41;81.33;100009.44;105632;1260;99357;-80
2023/05/20 07:20:37;;;;;;;35.20;22.80;;;;;;;16.52;81.12;100009.03;108156;1260;110709;-80
2023/05/20 07:23:05;;;;;;;33.40;22.60;;;;;;;16.63;81.22;100008.17;108145;1260;95612;-80
2023/05/20 07:25:33;;;;;;;32.90;20.90;;;;;;;16.79;81.32;100007.36;106604;1262;106666;-80
2023/05/20 07:28:01;;;;;;;34.50;22.00;;;;;;;16.96;81.25;100007.58;104798;1261;98396;-80
2023/05/20 07:30:29;;;;;;;35.80;21.50;;;;;;;16.99;80.78;100009.68;105420;1262;99167;-81
2023/05/20 07:32:57;;;;;;;33.70;21.90;;;;;;;16.94;80.76;100006.11;105110;1265;113207;-81
2023/05/20 07:35:25;;;;;;;35.20;21.60;;;;;;;16.97;80.85;100004.82;104666;1265;99335;-81
2023/05/20 07:37:53;;;;;;;34.80;22.70;;;;;;;17.00;80.85;100002.84;104844;1260;107634;-80
2023/05/20 07:40:21;;;;;;;32.10;21.00;;;;;;;17.02;80.81;100001.88;104574;1266;98019;-82
2023/05/20 07:42:49;;;;;;;37.40;23.20;;;;;;;17.12;81.02;99999.96;104603;1266;97957;-83
2023/05/20 07:45:17;;;;;;;32.10;20.60;;;;;;;17.14;80.77;100002.84;104657;1265;110794;-81
2023/05/20 07:47:46;;;;;;;35.40;23.50;;;;;;;17.13;80.78;99997.40;104691;1276;97963;-80
2023/05/20 07:50:14;;;;;;;36.80;24.20;;;;;;;17.19;80.75;99995.27;104535;1266;106172;-82
2023/05/20 07:52:42;;;;;;;37.20;23.70;;;;;;;17.28;80.97;99996.47;105560;1260;97999;-80
2023/05/20 07:55:23;;;;;;;32.80;22.10;;;;;;;17.42;80.86;99995.47;104751;1260;97939;-80
2023/05/20 07:57:51;;;;;;;33.80;21.10;;;;;;;17.60;80.90;99992.29;104653;1265;111027;-82
2023/05/20 08:00:19;;;;;;;34.00;22.80;;;;;;;17.81;80.98;99989.40;104821;1265;97960;-83
2023/05/20 08:02:47;;;;;;;33.30;21.50;;;;;;;18.00;80.81;99991.51;106835;1260;107716;-83
2023/05/20 08:05:15;;;;;;;32.80;21.00;;;;;;;18.15;80.54;99990.23;104669;1264;97956;-85
2023/05/20 08:07:43;;;;;;;33.50;21.80;;;;;;;18.26;80.41;99987.43;104669;1265;97985;-84
2023/05/20 08:10:12;;;;;;;34.50;21.70;;;;;;;18.34;80.32;99984.19;104490;1262;111409;-85
2023/05/20 08:12:40;;;;;;;31.00;21.80;;;;;;;18.40;80.32;99981.87;104629;1261;98010;-84
2023/05/20 08:15:08;;;;;;;31.20;20.40;;;;;;;18.36;79.94;99982.17;104879;1264;108257;-86
2023/05/20 08:17:37;;;;;;;34.30;21.60;;;;;;;18.27;79.93;99983.05;105698;1260;98035;-85
2023/05/20 08:20:07;;;;;;;33.70;21.20;;;;;;;18.23;80.03;99985.00;105697;1260;98095;-83
2023/05/20 08:22:36;;;;;;;33.00;22.10;;;;;;;18.19;79.86;99985.55;105538;1265;111000;-81
2023/05/20 08:25:08;;;;;;;32.20;21.10;;;;;;;18.14;79.79;99985.59;106890;1262;98865;-80
2023/05/20 08:27:36;;;;;;;35.60;21.40;;;;;;;18.06;79.77;99981.97;104543;1261;154068;-80
2023/05/20 08:30:07;;;;;;;38.20;22.60;;;;;;;18.07;79.83;99980.11;104520;1265;98117;-81
2023/05/20 08:32:36;;;;;;;33.10;21.60;;;;;;;18.18;79.88;99983.66;104665;1265;97880;-83
2023/05/20 08:35:08;;;;;;;33.70;22.30;;;;;;;18.33;80.03;99983.34;104591;1265;111295;-84
2023/05/20 08:37:35;;;;;;;34.00;21.80;;;;;;;18.51;80.01;99976.52;104574;1267;98473;-84
2023/05/20 08:40:05;;;;;;;34.00;23.50;;;;;;;18.66;80.09;99980.39;104469;1266;107680;-83
2023/05/20 08:42:33;;;;;;;35.70;22.00;;;;;;;18.74;79.88;99976.98;104540;1262;99247;-81
2023/05/20 08:45:01;;;;;;;35.10;24.60;;;;;;;18.78;79.67;99977.48;104475;1265;98076;-82
2023/05/20 08:47:30;;;;;;;36.00;22.00;;;;;;;18.83;79.58;99979.39;104532;1265;110961;-84
2023/05/20 08:49:58;;;;;;;36.20;23.10;;;;;;;18.89;79.57;99980.64;104569;1264;98039;-87
2023/05/20 08:52:30;;;;;;;34.50;22.90;;;;;;;18.98;79.63;99979.77;104634;1262;107672;-84
2023/05/20 08:54:58;;;;;;;35.20;23.80;;;;;;;19.10;79.42;99978.73;104672;1265;97976;-86
2023/05/20 08:57:27;;;;;;;39.00;25.20;;;;;;;19.16;79.38;99978.96;104775;1264;97891;-82
2023/05/20 08:59:56;;;;;;;41.40;23.80;;;;;;;19.11;79.07;99979.16;104792;1263;111458;-84
2023/05/20 09:02:24;;;;;;;36.70;23.00;;;;;;;19.15;79.17;99974.58;104741;1261;97929;-85
2023/05/20 09:04:53;;;;;;;35.50;21.50;;;;;;;19.32;79.31;99969.27;105101;1265;107660;-83
2023/05/20 09:07:27;;;;;;;33.80;22.30;;;;;;;19.43;79.30;99969.78;104669;1261;98860;-84
2023/05/20 09:09:57;;;;;;;32.00;21.20;;;;;;;19.53;78.98;99973.00;104588;1262;97943;-84
2023/05/20 09:12:25;;;;;;;33.00;22.30;;;;;;;19.51;78.77;99973.56;104712;1265;110328;-86
2023/05/20 09:14:52;;;;;;;32.50;22.10;;;;;;;19.60;78.95;99974.13;104556;1265;99266;-85
2023/05/20 09:17:23;;;;;;;32.30;21.60;;;;;;;19.77;79.09;99968.67;104780;1265;107657;-86
2023/05/20 09:19:55;;;;;;;31.30;20.70;;;;;;;19.91;78.82;99966.39;105038;1262;98072;-83
2023/05/20 09:22:27;;;;;;;32.70;21.30;;;;;;;19.91;78.64;99966.73;104672;1261;98000;-85
2023/05/20 09:24:55;;;;;;;32.00;22.30;;;;;;;19.98;78.52;99960.29;104562;1265;111528;-84
2023/05/20 09:27:23;;;;;;;29.50;19.20;;;;;;;20.02;78.66;99960.05;105144;1260;97960;-84
2023/05/20 09:29:51;;;;;;;30.10;20.10;;;;;;;19.92;78.16;99961.03;106631;1260;107518;-85
2023/05/20 09:32:23;;;;;;;31.20;19.70;;;;;;;19.87;78.23;99960.98;105563;1261;97962;-85
2023/05/20 09:34:51;;;;;;;30.80;19.70;;;;;;;19.75;77.80;99956.88;104936;1265;97901;-85
2023/05/20 09:37:20;;;;;;;31.30;21.30;;;;;;;19.67;78.11;99951.35;104905;1262;111324;-85
2023/05/20 09:39:58;;;;;;;30.20;20.30;;;;;;;19.64;78.03;99950.16;107890;1260;97840;-86
2023/05/20 09:42:40;;;;;;;30.60;20.10;;;;;;;19.70;77.90;99949.43;107886;1262;107646;-84
2023/05/20 09:45:08;;;;;;;33.50;21.60;;;;;;;19.70;77.80;99953.23;106198;1265;98043;-85
2023/05/20 09:47:40;;;;;;;33.50;21.30;;;;;;;19.66;77.78;99950.02;104734;1265;97950;-85
2023/05/20 09:50:08;;;;;;;30.10;20.70;;;;;;;19.72;77.78;99951.05;104699;1262;111306;-83
2023/05/20 09:52:38;;;;;;;32.90;21.20;;;;;;;19.84;77.75;99953.47;104932;1263;97943;-84
2023/05/20 09:55:11;;;;;;;29.60;19.10;;;;;;;20.09;77.85;99953.73;104539;1267;107666;-86
2023/05/20 09:57:39;;;;;;;29.90;18.60;;;;;;;20.26;77.73;99955.89;104454;1260;99202;-86
2023/05/20 10:00:07;;;;;;;31.30;21.00;;;;;;;20.41;77.56;99955.48;104494;1266;98111;-88
2023/05/20 10:02:35;;;;;;;31.30;21.10;;;;;;;20.51;77.56;99955.55;104627;1266;111042;-82
2023/05/20 10:05:09;;;;;;;29.00;20.30;;;;;;;20.52;77.34;99955.31;104631;1266;97862;-85
2023/05/20 10:07:57;;;;;;;28.70;19.20;;;;;;;20.47;77.03;99952.15;104561;1264;107733;-83
2023/05/20 10:10:49;;;;;;;31.10;20.60;;;;;;;20.24;76.67;99950.69;104453;1265;98004;-82
2023/05/20 10:13:30;;;;;;;28.60;19.80;;;;;;;19.92;76.35;99955.41;104429;1267;98569;-82
2023/05/20 10:16:23;;;;;;;30.00;19.60;;;;;;;19.79;76.27;99950.15;104511;1265;111336;-86
2023/05/20 10:19:22;;;;;;;29.40;19.80;;;;;;;19.76;76.53;99950.79;104672;1266;99268;-86
2023/05/20 10:22:04;;;;;;;29.20;20.50;;;;;;;19.86;76.60;99950.66;104756;1261;107953;-84
2023/05/20 10:24:39;;;;;;;28.00;18.70;;;;;;;19.95;76.59;99941.66;104745;1262;97949;-84
2023/05/20 10:27:11;;;;;;;31.90;20.70;;;;;;;19.98;76.37;99946.21;104596;1261;97923;-84
2023/05/20 10:29:50;;;;;;;30.60;20.40;;;;;;;19.89;76.17;99944.70;104871;1265;111297;-85
2023/05/20 10:32:25;;;;;;;28.60;19.00;;;;;;;19.86;76.17;99940.11;104751;1265;97962;-83
2023/05/20 10:34:58;;;;;;;28.50;20.40;;;;;;;19.88;76.21;99941.53;104627;1261;107594;-85
2023/05/20 10:37:29;;;;;;;30.10;21.70;;;;;;;19.87;76.04;99941.88;104581;1265;97885;-84
2023/05/20 10:40:10;;;;;;;32.10;20.20;;;;;;;19.77;75.75;99937.06;104735;1265;97989;-83
2023/05/20 10:42:38;;;;;;;31.60;20.00;;;;;;;19.65;75.90;99939.52;105642;1261;111114;-82
2023/05/20 10:45:07;;;;;;;28.20;19.00;;;;;;;19.59;75.80;99941.30;104796;1266;97954;-82
2023/05/20 10:47:40;;;;;;;30.50;20.60;;;;;;;19.57;75.61;99940.83;104665;1265;107874;-82
2023/05/20 10:50:26;;;;;;;28.10;20.30;;;;;;;19.56;75.60;99942.80;104657;1265;97976;-83
2023/05/20 10:53:03;;;;;;;28.90;19.80;;;;;;;19.54;75.49;99939.48;104979;1262;98085;-81
2023/05/20 10:55:39;;;;;;;32.60;20.90;;;;;;;19.52;75.43;99936.98;105096;1260;109293;-82
2023/05/20 10:58:08;;;;;;;33.00;20.60;;;;;;;19.54;75.54;99934.62;108109;1260;96387;-83
2023/05/20 11:00:36;;;;;;;29.80;20.10;;;;;;;19.54;75.64;99934.84;107566;1261;107316;-83
2023/05/20 11:03:06;;;;;;;31.70;20.20;;;;;;;19.50;75.33;99925.47;106448;1261;98001;-83
2023/05/20 11:05:35;;;;;;;28.60;18.10;;;;;;;19.47;75.37;99924.85;104966;1265;98019;-82
2023/05/20 11:08:05;;;;;;;29.70;18.40;;;;;;;19.42;75.15;99923.39;107531;1262;110982;-83
2023/05/20 11:10:55;;;;;;;28.60;18.20;;;;;;;19.35;75.09;99916.79;104885;1260;97943;-84
2023/05/20 11:13:25;;;;;;;29.10;18.20;;;;;;;19.37;75.19;99915.57;106984;1262;107511;-84
2023/05/20 11:15:54;;;;;;;28.00;17.70;;;;;;;19.37;75.05;99908.59;105626;1265;97973;-84